Condiciones actuales en los principales Aeropuertos de España-Datos Metar

 

LEAL - Alicante
Actualización: 12/12/2017 07:30
Despejado
Despejado
 Viento del O
Viento: O 22 km/h
Temperatura: 9°C
Wind Chill: 6°C
Rocío: 3°C
Humedad: 66%
Barómetro: 1011 hPa
Resumen: Despejado
Visibilidad: greater than 10 km
2017/12/12 06:30 LEAL 120630Z 28012KT CAVOK 09/03 Q1011 NOSIG
LEAB - Albacete
Actualización: 12/12/2017 07:00
Mostly Cloudy
Mostly Cloudy
 Viento del NO
Viento: NO 19 km/h
Temperatura: 3°C
Wind Chill: -2°C
Rocío: 0°C
Humedad: 81%
Barómetro: 1011 hPa
Nubosidad: Mostly Cloudy
Visibilidad: 10 km
Cloud details: Mostly Cloudy 671 m
2017/12/12 06:00 LEAB 120600Z 32010KT 9999 BKN022 03/M00 Q1011 NOSIG
LEAM - Almería
Actualización: 12/12/2017 07:30
Despejado
Despejado
 Viento del NNO
Viento: NNO 22 km/h
Temperatura: 9°C
Wind Chill: 6°C
Rocío: 1°C
Humedad: 58%
Barómetro: 1010 hPa
Resumen: Despejado
Visibilidad: greater than 10 km
2017/12/12 06:30 LEAM 120630Z 33012KT CAVOK 09/01 Q1010
 
LEAS - Asturias/Aviles
Actualización: 12/12/2017 07:34
Chubascos, Parcialmente nublado
Chubascos, Parcialmente nublado
 Viento del SO
Viento: SO 20 km/h
Temperatura: 7°C
Wind Chill: 4°C
Rocío: 5°C
Humedad: 87%
Barómetro: 1015 hPa
Resumen: Rain Showers
Nubosidad: Partly Cloudy
Visibilidad: 6 km
Cloud details: Mostly Cloudy 853 m
Partly Cloudy 1097 m
2017/12/12 06:34 LEAS 120634Z 22011KT 6000 SHRA BKN028 SCT036TCU 07/05 Q1015 TEMPO NSW
LEBZ - Badajoz/Talavera la Real
Actualización: 12/12/2017 07:00
Partly Cloudy
Partly Cloudy
 Viento del varies
Viento: varies 4 km/h
Temperatura: 5°C
Rocío: 0°C
Humedad: 70%
Barómetro: 1016 hPa
Nubosidad: Partly Cloudy
Visibilidad: 9 km
2017/12/12 06:00 LEBZ 120600Z VRB02KT 9000 NSC 05/00 Q1016
LEBL - Barcelona
Actualización: 12/12/2017 07:30
Few Clouds
Few Clouds
 Viento del ONO
Viento: ONO 17 km/h
Temperatura: 6°C
Wind Chill: 3°C
Rocío: 2°C
Humedad: 76%
Barómetro: 1010 hPa
Nubosidad: Few Clouds
Visibilidad: 10 km
Cloud details: Few Clouds 762 m
2017/12/12 06:30 LEBL 120630Z 30009KT 9999 FEW025 06/02 Q1010 NOSIG
 
LEBB - Bilbao
Actualización: 12/12/2017 07:30
Lluvia débil, Showers, Muy nuboso
Lluvia débil, Showers, Muy nuboso
 Viento del varies
Viento: varies 4 km/h
Temperatura: 5°C
Rocío: 4°C
Humedad: 93%
Barómetro: 1015 hPa
Resumen: Lluvia débil, Showers
Nubosidad: Mostly Cloudy
Visibilidad: 8 km
Cloud details: Few Clouds 762 m
Mostly Cloudy 1067 m
2017/12/12 06:30 LEBB 120630Z VRB02KT 8000 -SHRA FEW025TCU BKN035 05/04 Q1015 TEMPO SHRA SCT025TCU
LEBG - Burgos/Villafría
Actualización: 12/12/2017 07:30
Few Clouds
Few Clouds
 Viento del S
Viento: S 4 km/h
Temperatura: -2°C
Rocío: -2°C
Humedad: 100%
Barómetro: 1013 hPa
Nubosidad: Few Clouds
Visibilidad: 10 km
Cloud details: Few Clouds 1494 m
2017/12/12 06:30 LEBG 120630Z 18002KT 9999 FEW049 M02/M02 Q1013
LEBA - Córdoba
Actualización: 12/12/2017 07:30
Despejado
Despejado
 Viento del calm
Viento: Calma
Temperatura: 5°C
Rocío: 3°C
Humedad: 87%
Barómetro: 1014 hPa
Nubosidad: Despejado
Visibilidad: 10 km
2017/12/12 06:30 LEBA 120630Z AUTO 00000KT 9999 NCD 05/03 Q1014
 
LEGE - Gerona
Actualización: 12/12/2017 07:30
Mostly Cloudy
Mostly Cloudy
 Viento del varies
Viento: varies 2 km/h
Temperatura: 0°C
Rocío: 0°C
Humedad: 100%
Barómetro: 1009 hPa
Nubosidad: Mostly Cloudy
Visibilidad: 10 km
Cloud details: Mostly Cloudy 762 m
2017/12/12 06:30 LEGE 120630Z VRB01KT 9999 BKN025 M00/M00 Q1009
LEGR - Granada
Actualización: 12/12/2017 07:30
Few Clouds
Few Clouds
 Viento del varies
Viento: varies 2 km/h
Temperatura: 3°C
Rocío: 2°C
Humedad: 93%
Barómetro: 1012 hPa
Nubosidad: Few Clouds
Visibilidad: 10 km
Cloud details: Few Clouds 610 m
2017/12/12 06:30 LEGR 120630Z VRB01KT 9999 FEW020 03/02 Q1012
GCHI - Hierro
Actualización: 12/12/2017 07:30
Mostly Cloudy
Mostly Cloudy
 Viento del NNE
Viento: NNE 41 km/h
Temperatura: 19°C
Rocío: 13°C
Humedad: 68%
Barómetro: 1018 hPa
Nubosidad: Mostly Cloudy
Visibilidad: 10 km
Cloud details: Partly Cloudy 823 m
Mostly Cloudy 1768 m
2017/12/12 06:30 GCHI 120630Z AUTO 03022KT 9999 SCT027/// BKN058/// 19/13 Q1018
 
LEIB - Ibiza
Actualización: 12/12/2017 07:30
Few Clouds
Few Clouds
 Viento del ONO
Viento: ONO 6 km/h
Temperatura: 9°C
Rocío: 5°C
Humedad: 76%
Barómetro: 1010 hPa
Nubosidad: Few Clouds
Visibilidad: 10 km
Cloud details: Few Clouds 762 m
2017/12/12 06:30 LEIB 120630Z 29003KT 9999 FEW025 09/05 Q1010 NOSIG
LEJR - Jerez de la Frontera
Actualización: 12/12/2017 07:30
Despejado
Despejado
 Viento del varies
Viento: varies 4 km/h
Temperatura: 4°C
Rocío: 3°C
Humedad: 93%
Barómetro: 1014 hPa
Resumen: Despejado
Visibilidad: greater than 10 km
2017/12/12 06:30 LEJR 120630Z VRB02KT CAVOK 04/03 Q1014
LECO - A Coruña
Actualización: 12/12/2017 07:30
Partly Cloudy
Partly Cloudy
 Viento del S
Viento: S 9 km/h
Temperatura: 6°C
Wind Chill: 4°C
Rocío: 5°C
Humedad: 93%
Barómetro: 1016 hPa
Nubosidad: Partly Cloudy
Visibilidad: 10 km
Cloud details: Partly Cloudy 1158 m
2017/12/12 06:30 LECO 120630Z 17005KT 9999 SCT038 06/05 Q1016 NOSIG
 
GCLA - La Palma
Actualización: 12/12/2017 07:30
Mostly Cloudy
Mostly Cloudy
 Viento del N
Viento: N 26 km/h, Racha: 48 km/h
Temperatura: 18°C
Rocío: 13°C
Humedad: 73%
Barómetro: 1019 hPa
Nubosidad: Mostly Cloudy
Visibilidad: 10 km
Cloud details: Mostly Cloudy 1067 m
Mostly Cloudy 1311 m
Mostly Cloudy 1524 m
2017/12/12 06:30 GCLA 120630Z AUTO 01014G26KT 330V060 9999 BKN035/// BKN043/// BKN050/// 18/13 Q1019
GCRR - Lanzarote
Actualización: 12/12/2017 07:30
Partly Cloudy
Partly Cloudy
 Viento del N
Viento: N 20 km/h
Temperatura: 16°C
Rocío: 11°C
Humedad: 72%
Barómetro: 1016 hPa
Nubosidad: Partly Cloudy
Visibilidad: 10 km
Cloud details: Partly Cloudy 1494 m
2017/12/12 06:30 GCRR 120630Z 36011KT 9999 SCT049 16/11 Q1016
GCLP - Las Palmas
Actualización: 12/12/2017 07:30
Partly Cloudy
Partly Cloudy
 Viento del N
Viento: N 35 km/h
Temperatura: 18°C
Rocío: 11°C
Humedad: 64%
Barómetro: 1017 hPa
Nubosidad: Partly Cloudy
Visibilidad: 10 km
Cloud details: Partly Cloudy 1219 m
Partly Cloudy 2134 m
2017/12/12 06:30 GCLP 120630Z 01019KT 9999 SCT040 SCT070 18/11 Q1017 NOSIG
 
LELN - León
Actualización: 12/12/2017 07:00
Despejado
Despejado
 Viento del O
Viento: O 7 km/h
Temperatura: -2°C
Wind Chill: -6°C
Rocío: -2°C
Humedad: 100%
Barómetro: 1012 hPa
Resumen: Despejado
Visibilidad: greater than 10 km
2017/12/12 06:00 LELN 120600Z 27004KT CAVOK M02/M02 Q1012
LELO - Logroño
Actualización: 12/12/2017 07:00
Partly Cloudy
Partly Cloudy
 Viento del O
Viento: O 22 km/h
Temperatura: 3°C
Wind Chill: -2°C
Rocío: 0°C
Humedad: 81%
Barómetro: 1013 hPa
Nubosidad: Partly Cloudy
Visibilidad: 10 km
Cloud details: Partly Cloudy 1372 m
2017/12/12 06:00 LELO 120600Z 28012KT 9999 SCT045 03/00 Q1013
LECV - Madrid/Colmenar
Actualización: 11/12/2017 19:00
NO Actualizado
Mostly Cloudy
Mostly Cloudy
 Viento del O
Viento: O 7 km/h
Temperatura: 3°C
Wind Chill: 1°C
Rocío: 1°C
Humedad: 87%
Barómetro: 999 hPa
Nubosidad: Mostly Cloudy
Visibilidad: 10 km
Cloud details: Few Clouds 305 m
Mostly Cloudy 914 m
2017/12/11 18:00 LECV 111800Z 26004KT 9999 FEW010 BKN030 03/01 Q0999
 
LEMD - Madrid/Barajas
Actualización: 12/12/2017 07:30
Despejado
Despejado
 Viento del NE
Viento: NE 6 km/h
Temperatura: 0°C
Rocío: -3°C
Humedad: 80%
Barómetro: 1014 hPa
Resumen: Despejado
Visibilidad: greater than 10 km
2017/12/12 06:30 LEMD 120630Z 05003KT CAVOK 00/M03 Q1014 NOSIG
LEVS - Madrid/Cuatro Vientos
Actualización: 12/12/2017 07:30
Despejado
Despejado
 Viento del varies
Viento: varies 4 km/h
Temperatura: 2°C
Rocío: -1°C
Humedad: 81%
Barómetro: 1013 hPa
Resumen: Despejado
Visibilidad: greater than 10 km
2017/12/12 06:30 LEVS 120630Z VRB02KT CAVOK 02/M01 Q1013
LEGT - Madrid/Getafe
Actualización: 12/12/2017 07:00
Despejado
Despejado
 Viento del ONO
Viento: ONO 4 km/h
Temperatura: -1°C
Rocío: -4°C
Humedad: 80%
Barómetro: 1013 hPa
Resumen: Despejado
Visibilidad: greater than 10 km
2017/12/12 06:00 LEGT 120600Z 30002KT CAVOK M01/M04 Q1013
 
LETO - Madrid/Torrejón
Actualización: 12/12/2017 07:00
Despejado
Despejado
 Viento del N
Viento: N 17 km/h
Temperatura: 2°C
Wind Chill: -2°C
Rocío: -2°C
Humedad: 75%
Barómetro: 1013 hPa
Resumen: Despejado
Visibilidad: greater than 10 km
2017/12/12 06:00 LETO 120600Z 01009KT CAVOK 02/M02 Q1013 NOSIG
LEMG - Málaga
Actualización: 12/12/2017 07:30
Partly Cloudy
Partly Cloudy
 Viento del ONO
Viento: ONO 19 km/h
Temperatura: 9°C
Wind Chill: 6°C
Rocío: 5°C
Humedad: 76%
Barómetro: 1012 hPa
Nubosidad: Partly Cloudy
Visibilidad: 10 km
Cloud details: Partly Cloudy 1219 m
2017/12/12 06:30 LEMG 120630Z 29010KT 9999 SCT040 09/05 Q1012 NOSIG
GEML - Melilla
Actualización: 12/12/2017 07:30
Lluvia débil, Muy nuboso
Lluvia débil, Muy nuboso
 Viento del SO
Viento: SO 11 km/h
Temperatura: 12°C
Rocío: 10°C
Humedad: 88%
Barómetro: 1012 hPa
Resumen: Light Rain
Nubosidad: Mostly Cloudy
Visibilidad: 9 km
Cloud details: Partly Cloudy 823 m
Mostly Cloudy 975 m
Mostly Cloudy 1158 m
2017/12/12 06:30 GEML 120630Z 23006KT 190V270 9000 -RA SCT027 BKN032 BKN038 12/10 Q1012
 
LEMH - Mahón
Actualización: 12/12/2017 07:30
Few Clouds
Few Clouds
 Viento del NO
Viento: NO 2 km/h
Temperatura: 9°C
Rocío: 7°C
Humedad: 87%
Barómetro: 1009 hPa
Nubosidad: Few Clouds
Visibilidad: 10 km
Cloud details: Few Clouds 762 m
2017/12/12 06:30 LEMH 120630Z 31001KT 9999 FEW025 09/07 Q1009
LEMO - Morón de La Frontera
Actualización: 12/12/2017 07:00
Despejado
Despejado
 Viento del NE
Viento: NE 6 km/h
Temperatura: 4°C
Rocío: 3°C
Humedad: 93%
Barómetro: 1014 hPa
Resumen: Despejado
Visibilidad: greater than 10 km
2017/12/12 06:00 LEMO 120600Z 05003KT CAVOK 04/03 Q1014 NOSIG
LERI - Murcia/Alcantarilla
Actualización: 12/12/2017 07:00
Despejado
Despejado
 Viento del varies
Viento: varies 2 km/h
Temperatura: 2°C
Rocío: 1°C
Humedad: 93%
Barómetro: 1011 hPa
Resumen: Despejado
Visibilidad: greater than 10 km
2017/12/12 06:00 LERI 120600Z VRB01KT CAVOK 02/01 Q1011 NOSIG
 
LELC - Murcia/San Javier
Actualización: 12/12/2017 07:00
Despejado
Despejado
 Viento del O
Viento: O 15 km/h
Temperatura: 4°C
Wind Chill: 1°C
Rocío: 3°C
Humedad: 93%
Barómetro: 1010 hPa
Resumen: Despejado
Visibilidad: greater than 10 km
2017/12/12 06:00 LELC 120600Z 28008KT CAVOK 04/03 Q1010 NOSIG
LEPA - Palma de Mallorca
Actualización: 12/12/2017 07:30
Few Clouds
Few Clouds
 Viento del calm
Viento: Calma
Temperatura: 8°C
Rocío: 7°C
Humedad: 93%
Barómetro: 1009 hPa
Nubosidad: Few Clouds
Visibilidad: 10 km
Cloud details: Few Clouds 762 m
2017/12/12 06:30 LEPA 120630Z 00000KT 9999 FEW025 08/07 Q1009 NOSIG
LEPP - Pamplona
Actualización: 12/12/2017 07:30
Mostly Cloudy
Mostly Cloudy
 Viento del OSO
Viento: OSO 6 km/h
Temperatura: 2°C
Rocío: 2°C
Humedad: 100%
Barómetro: 1013 hPa
Nubosidad: Mostly Cloudy
Visibilidad: 10 km
Cloud details: Few Clouds 518 m
Partly Cloudy 853 m
Mostly Cloudy 1097 m
2017/12/12 06:30 LEPP 120630Z 24003KT 200V270 9999 FEW017 SCT028 BKN036 02/02 Q1013
 
LERS - Reus
Actualización: 12/12/2017 07:30
Few Clouds
Few Clouds
 Viento del O
Viento: O 20 km/h
Temperatura: 9°C
Wind Chill: 6°C
Rocío: 0°C
Humedad: 54%
Barómetro: 1009 hPa
Nubosidad: Few Clouds
Visibilidad: 10 km
Cloud details: Few Clouds 914 m
2017/12/12 06:30 LERS 120630Z 27011KT 240V300 9999 FEW030 09/00 Q1009
LERT - Rota
Actualización: 12/12/2017 07:00
Despejado
Despejado
 Viento del NNO
Viento: NNO 11 km/h
Temperatura: 7°C
Wind Chill: 5°C
Rocío: 3°C
Humedad: 76%
Barómetro: 1014 hPa
Resumen: Despejado
Visibilidad: greater than 10 km
2017/12/12 06:00 LERT 120600Z 34006KT 310V020 CAVOK 07/03 Q1014 NOSIG
LELL - Sabadell
Actualización: 12/12/2017 07:30
Despejado
Despejado
 Viento del O
Viento: O 7 km/h
Temperatura: 5°C
Wind Chill: 3°C
Rocío: 3°C
Humedad: 87%
Barómetro: 1009 hPa
Resumen: Despejado
Visibilidad: greater than 10 km
2017/12/12 06:30 LELL 120630Z AUTO 27004KT 240V300 CAVOK 05/03 Q1009
 
LESA - Salamanca
Actualización: 12/12/2017 07:30
Despejado
Despejado
 Viento del SO
Viento: SO 6 km/h
Temperatura: -2°C
Rocío: -3°C
Humedad: 93%
Barómetro: 1015 hPa
Resumen: Despejado
Visibilidad: greater than 10 km
2017/12/12 06:30 LESA 120630Z 22003KT CAVOK M02/M03 Q1015
LESO - San Sebastián
Actualización: 12/12/2017 07:30
Few Clouds
Few Clouds
 Viento del SE
Viento: SE 7 km/h
Temperatura: 5°C
Wind Chill: 3°C
Rocío: 4°C
Humedad: 93%
Barómetro: 1014 hPa
Nubosidad: Few Clouds
Visibilidad: 10 km
Cloud details: Few Clouds 914 m
2017/12/12 06:30 LESO 120630Z 14004KT 9999 FEW030 05/04 Q1014
LEXJ - Santander
Actualización: 12/12/2017 07:30
Lluvia débil, Muy nuboso
Lluvia débil, Muy nuboso
 Viento del SO
Viento: SO 11 km/h
Temperatura: 6°C
Wind Chill: 4°C
Rocío: 4°C
Humedad: 87%
Barómetro: 1014 hPa
Resumen: Light Rain
Nubosidad: Mostly Cloudy
Visibilidad: 10 km
Cloud details: Few Clouds 762 m
Mostly Cloudy 1494 m
2017/12/12 06:30 LEXJ 120630Z 22006KT 9999 -RA FEW025 BKN049 06/04 Q1014
 
LEPA - Palma de Mallorca
Actualización: 12/12/2017 07:30
Few Clouds
Few Clouds
 Viento del calm
Viento: Calma
Temperatura: 8°C
Rocío: 7°C
Humedad: 93%
Barómetro: 1009 hPa
Nubosidad: Few Clouds
Visibilidad: 10 km
Cloud details: Few Clouds 762 m
2017/12/12 06:30 LEPA 120630Z 00000KT 9999 FEW025 08/07 Q1009 NOSIG
LEPP - Pamplona
Actualización: 12/12/2017 07:30
Mostly Cloudy
Mostly Cloudy
 Viento del OSO
Viento: OSO 6 km/h
Temperatura: 2°C
Rocío: 2°C
Humedad: 100%
Barómetro: 1013 hPa
Nubosidad: Mostly Cloudy
Visibilidad: 10 km
Cloud details: Few Clouds 518 m
Partly Cloudy 853 m
Mostly Cloudy 1097 m
2017/12/12 06:30 LEPP 120630Z 24003KT 200V270 9999 FEW017 SCT028 BKN036 02/02 Q1013
LEST - Santiago de Compostela
Actualización: 12/12/2017 07:30
Patches of fog, Parcialmente nublado
Patches of fog, Parcialmente nublado
 Viento del varies
Viento: varies 2 km/h
Temperatura: 1°C
Rocío: 1°C
Humedad: 100%
Barómetro: 1017 hPa
Resumen: Patches of Fog
Nubosidad: Partly Cloudy
Visibilidad: 8 km
Cloud details: Few Clouds 671 m
Partly Cloudy 1128 m
2017/12/12 06:30 LEST 120630Z VRB01KT 8000 2000SW BCFG FEW022 SCT037 01/01 Q1017 NOSIG
 
LEZL - Sevilla
Actualización: 12/12/2017 07:30
Despejado
Despejado
 Viento del varies
Viento: varies 2 km/h
Temperatura: 7°C
Rocío: 3°C
Humedad: 76%
Barómetro: 1015 hPa
Resumen: Despejado
Visibilidad: greater than 10 km
2017/12/12 06:30 LEZL 120630Z VRB01KT CAVOK 07/03 Q1015 NOSIG
GCXO - Tenerife
Actualización: 12/12/2017 07:30
Mostly Cloudy
Mostly Cloudy
 Viento del NNO
Viento: NNO 20 km/h
Temperatura: 13°C
Rocío: 9°C
Humedad: 77%
Barómetro: 1019 hPa
Nubosidad: Mostly Cloudy
Visibilidad: 10 km
Cloud details: Mostly Cloudy 610 m
2017/12/12 06:30 GCXO 120630Z 34011KT 300V050 9999 BKN020 13/09 Q1019 NOSIG
GCTS - Tenerife-Sur
Actualización: 12/12/2017 07:30
Partly Cloudy
Partly Cloudy
 Viento del NE
Viento: NE 19 km/h
Temperatura: 18°C
Rocío: 7°C
Humedad: 49%
Barómetro: 1017 hPa
Nubosidad: Partly Cloudy
Visibilidad: 10 km
Cloud details: Partly Cloudy 1676 m
2017/12/12 06:30 GCTS 120630Z 05010KT 020V080 9999 SCT055 18/07 Q1017 NOSIG
 
LEVC - Valencia
Actualización: 12/12/2017 07:30
Despejado
Despejado
 Viento del NO
Viento: NO 7 km/h
Temperatura: 5°C
Wind Chill: 3°C
Rocío: 3°C
Humedad: 87%
Barómetro: 1011 hPa
Resumen: Despejado
Visibilidad: greater than 10 km
2017/12/12 06:30 LEVC 120630Z 31004KT CAVOK 05/03 Q1011 NOSIG
LEVD - Valladolid
Actualización: 12/12/2017 07:30
Despejado
Despejado
 Viento del SO
Viento: SO 4 km/h
Temperatura: -3°C
Rocío: -4°C
Humedad: 93%
Barómetro: 1014 hPa
Resumen: Despejado
Visibilidad: greater than 10 km
2017/12/12 06:30 LEVD 120630Z 22002KT CAVOK M03/M04 Q1014
LEVX - Vigo
Actualización: 12/12/2017 07:30
Few Clouds
Few Clouds
 Viento del varies
Viento: varies 4 km/h
Temperatura: 4°C
Rocío: 3°C
Humedad: 93%
Barómetro: 1017 hPa
Nubosidad: Few Clouds
Visibilidad: 10 km
Cloud details: Few Clouds 1524 m
2017/12/12 06:30 LEVX 120630Z VRB02KT 9999 FEW050 04/03 Q1017 NOSIG
 
LEVT - Vitoria
Actualización: 12/12/2017 07:30
Lluvia débil, Muy nuboso
Lluvia débil, Muy nuboso
 Viento del O
Viento: O 7 km/h
Temperatura: 2°C
Wind Chill: 0°C
Rocío: 1°C
Humedad: 93%
Barómetro: 1014 hPa
Resumen: Light Rain
Nubosidad: Mostly Cloudy
Visibilidad: 7 km
Cloud details: Partly Cloudy 427 m
Mostly Cloudy 762 m
2017/12/12 06:30 LEVT 120630Z 27004KT 7000 -RA SCT014 BKN025 02/01 Q1014
LEZG - Zaragoza
Actualización: 12/12/2017 07:30
Few Clouds
Few Clouds
 Viento del O
Viento: O 17 km/h
Temperatura: 4°C
Wind Chill: 0°C
Rocío: 0°C
Humedad: 75%
Barómetro: 1013 hPa
Nubosidad: Few Clouds
Visibilidad: 10 km
Cloud details: Few Clouds 1372 m
2017/12/12 06:30 LEZG 120630Z 28009KT 9999 FEW045 04/M00 Q1013

La estación de MeteoMurcia.com, publica sus datos en los siguientes proyectos:

Meteoclimatic www.awekas.at

W3Counter
Web Analytics